sensor_id;sensor_type;location;lat;lon;timestamp;pressure;altitude;pressure_sealevel;temperature;humidity
35806;BME280;21925;44.608;11.580;2023-05-09T00:00:18;101876.28;;;20.94;100.00
35806;BME280;21925;44.608;11.580;2023-05-09T00:02:44;101909.13;;;21.28;100.00
35806;BME280;21925;44.608;11.580;2023-05-09T00:05:11;101905.22;;;21.40;100.00
35806;BME280;21925;44.608;11.580;2023-05-09T00:07:37;101916.69;;;21.21;100.00
35806;BME280;21925;44.608;11.580;2023-05-09T00:10:03;101907.94;;;21.29;100.00
35806;BME280;21925;44.608;11.580;2023-05-09T00:12:29;101915.56;;;21.36;100.00
35806;BME280;21925;44.608;11.580;2023-05-09T00:14:56;101910.69;;;21.22;100.00
35806;BME280;21925;44.608;11.580;2023-05-09T00:17:25;101887.19;;;21.20;100.00
35806;BME280;21925;44.608;11.580;2023-05-09T00:19:51;101909.19;;;21.39;100.00
35806;BME280;21925;44.608;11.580;2023-05-09T00:22:19;101899.97;;;21.28;98.07
35806;BME280;21925;44.608;11.580;2023-05-09T00:24:48;101915.44;;;21.11;99.45
35806;BME280;21925;44.608;11.580;2023-05-09T00:27:15;101911.00;;;21.00;99.91
35806;BME280;21925;44.608;11.580;2023-05-09T00:29:41;101880.25;;;20.93;98.96
35806;BME280;21925;44.608;11.580;2023-05-09T00:32:07;101914.19;;;21.05;98.05
35806;BME280;21925;44.608;11.580;2023-05-09T00:34:33;101913.41;;;21.05;98.24
35806;BME280;21925;44.608;11.580;2023-05-09T00:36:59;101914.69;;;21.25;95.99
35806;BME280;21925;44.608;11.580;2023-05-09T00:39:25;101911.91;;;21.25;95.33
35806;BME280;21925;44.608;11.580;2023-05-09T00:41:51;101915.06;;;21.16;95.13
35806;BME280;21925;44.608;11.580;2023-05-09T00:44:17;101911.81;;;21.04;94.79
35806;BME280;21925;44.608;11.580;2023-05-09T00:46:43;101900.63;;;21.00;95.07
35806;BME280;21925;44.608;11.580;2023-05-09T00:49:10;101907.47;;;21.17;94.69
35806;BME280;21925;44.608;11.580;2023-05-09T00:51:38;101867.22;;;21.11;91.97
35806;BME280;21925;44.608;11.580;2023-05-09T00:54:05;101905.72;;;20.88;95.57
35806;BME280;21925;44.608;11.580;2023-05-09T00:56:31;101898.03;;;20.75;96.76
35806;BME280;21925;44.608;11.580;2023-05-09T00:58:57;101896.59;;;20.91;95.42
35806;BME280;21925;44.608;11.580;2023-05-09T01:01:26;101890.19;;;20.87;95.25
35806;BME280;21925;44.608;11.580;2023-05-09T01:03:53;101863.06;;;20.84;94.23
35806;BME280;21925;44.608;11.580;2023-05-09T01:14:47;101886.25;;;20.95;92.73
35806;BME280;21925;44.608;11.580;2023-05-09T01:20:31;101889.75;;;20.85;95.40
35806;BME280;21925;44.608;11.580;2023-05-09T01:28:53;101879.94;;;21.08;92.78
35806;BME280;21925;44.608;11.580;2023-05-09T01:31:23;101859.91;;;20.82;93.04
35806;BME280;21925;44.608;11.580;2023-05-09T01:33:53;101885.38;;;20.84;93.57
35806;BME280;21925;44.608;11.580;2023-05-09T01:36:20;101867.69;;;20.63;95.55
35806;BME280;21925;44.608;11.580;2023-05-09T01:38:49;101862.16;;;20.70;95.68
35806;BME280;21925;44.608;11.580;2023-05-09T01:41:16;101867.41;;;20.24;99.06
35806;BME280;21925;44.608;11.580;2023-05-09T01:43:47;101860.50;;;20.11;100.00
35806;BME280;21925;44.608;11.580;2023-05-09T01:46:17;101864.88;;;20.12;100.00
35806;BME280;21925;44.608;11.580;2023-05-09T01:48:44;101874.03;;;20.09;100.00
35806;BME280;21925;44.608;11.580;2023-05-09T01:51:12;101859.25;;;20.52;100.00
35806;BME280;21925;44.608;11.580;2023-05-09T01:53:39;101863.25;;;20.51;99.20
35806;BME280;21925;44.608;11.580;2023-05-09T01:56:07;101855.59;;;20.41;99.25
35806;BME280;21925;44.608;11.580;2023-05-09T01:58:35;101856.69;;;20.30;100.00
35806;BME280;21925;44.608;11.580;2023-05-09T02:01:02;101872.28;;;20.38;100.00
35806;BME280;21925;44.608;11.580;2023-05-09T02:03:28;101850.88;;;20.02;100.00
35806;BME280;21925;44.608;11.580;2023-05-09T02:05:55;101862.53;;;20.14;100.00
35806;BME280;21925;44.608;11.580;2023-05-09T02:08:21;101867.59;;;20.02;100.00
35806;BME280;21925;44.608;11.580;2023-05-09T02:10:48;101868.22;;;19.89;100.00
35806;BME280;21925;44.608;11.580;2023-05-09T02:13:14;101866.91;;;19.76;100.00
35806;BME280;21925;44.608;11.580;2023-05-09T02:15:42;101856.13;;;20.07;100.00
35806;BME280;21925;44.608;11.580;2023-05-09T02:18:08;101855.31;;;20.10;100.00
35806;BME280;21925;44.608;11.580;2023-05-09T02:20:34;101854.66;;;20.23;99.58
35806;BME280;21925;44.608;11.580;2023-05-09T02:23:00;101862.09;;;20.12;100.00
35806;BME280;21925;44.608;11.580;2023-05-09T02:25:27;101852.63;;;19.81;100.00
35806;BME280;21925;44.608;11.580;2023-05-09T02:27:54;101858.88;;;19.71;100.00
35806;BME280;21925;44.608;11.580;2023-05-09T02:30:23;101861.94;;;19.59;100.00
35806;BME280;21925;44.608;11.580;2023-05-09T02:32:55;101878.84;;;19.43;100.00
35806;BME280;21925;44.608;11.580;2023-05-09T02:35:26;101867.13;;;19.27;100.00
35806;BME280;21925;44.608;11.580;2023-05-09T02:37:53;101862.38;;;19.28;100.00
35806;BME280;21925;44.608;11.580;2023-05-09T02:40:21;101871.16;;;19.30;100.00
35806;BME280;21925;44.608;11.580;2023-05-09T02:42:47;101857.16;;;19.26;100.00
35806;BME280;21925;44.608;11.580;2023-05-09T02:45:13;101867.28;;;19.38;100.00
35806;BME280;21925;44.608;11.580;2023-05-09T02:47:39;101878.47;;;19.45;100.00
35806;BME280;21925;44.608;11.580;2023-05-09T02:50:05;101873.00;;;19.52;100.00
35806;BME280;21925;44.608;11.580;2023-05-09T02:52:33;101861.78;;;19.45;100.00
35806;BME280;21925;44.608;11.580;2023-05-09T02:55:00;101872.22;;;19.55;100.00
35806;BME280;21925;44.608;11.580;2023-05-09T02:57:26;101859.06;;;19.52;100.00
35806;BME280;21925;44.608;11.580;2023-05-09T02:59:52;101854.94;;;19.39;100.00
35806;BME280;21925;44.608;11.580;2023-05-09T03:02:18;101858.66;;;19.50;100.00
35806;BME280;21925;44.608;11.580;2023-05-09T03:04:44;101858.34;;;19.22;100.00
35806;BME280;21925;44.608;11.580;2023-05-09T03:07:10;101863.13;;;19.25;100.00
35806;BME280;21925;44.608;11.580;2023-05-09T03:09:39;101871.47;;;19.25;100.00
35806;BME280;21925;44.608;11.580;2023-05-09T03:12:05;101871.16;;;19.30;100.00
35806;BME280;21925;44.608;11.580;2023-05-09T03:14:31;101861.28;;;19.36;100.00
35806;BME280;21925;44.608;11.580;2023-05-09T03:16:58;101858.41;;;19.29;100.00
35806;BME280;21925;44.608;11.580;2023-05-09T03:19:29;101848.41;;;19.24;100.00
35806;BME280;21925;44.608;11.580;2023-05-09T03:21:55;101865.38;;;19.49;100.00
35806;BME280;21925;44.608;11.580;2023-05-09T03:24:21;101861.00;;;19.48;100.00
35806;BME280;21925;44.608;11.580;2023-05-09T03:26:47;101830.75;;;19.43;100.00
35806;BME280;21925;44.608;11.580;2023-05-09T03:29:13;101844.38;;;19.55;100.00
35806;BME280;21925;44.608;11.580;2023-05-09T03:31:39;101855.38;;;19.41;100.00
35806;BME280;21925;44.608;11.580;2023-05-09T03:34:05;101852.59;;;19.41;100.00
35806;BME280;21925;44.608;11.580;2023-05-09T03:36:32;101852.25;;;19.46;100.00
35806;BME280;21925;44.608;11.580;2023-05-09T03:38:59;101853.09;;;19.50;100.00
35806;BME280;21925;44.608;11.580;2023-05-09T03:41:25;101848.16;;;19.36;100.00
35806;BME280;21925;44.608;11.580;2023-05-09T03:43:51;101818.19;;;19.23;100.00
35806;BME280;21925;44.608;11.580;2023-05-09T03:46:17;101808.72;;;19.27;100.00
35806;BME280;21925;44.608;11.580;2023-05-09T03:48:46;101840.03;;;19.54;100.00
35806;BME280;21925;44.608;11.580;2023-05-09T03:51:13;101838.16;;;19.65;100.00
35806;BME280;21925;44.608;11.580;2023-05-09T03:53:40;101838.34;;;19.46;100.00
35806;BME280;21925;44.608;11.580;2023-05-09T03:56:08;101846.69;;;19.46;100.00
35806;BME280;21925;44.608;11.580;2023-05-09T03:58:41;101840.28;;;19.42;100.00
35806;BME280;21925;44.608;11.580;2023-05-09T04:01:07;101841.84;;;19.39;100.00
35806;BME280;21925;44.608;11.580;2023-05-09T04:03:33;101837.66;;;19.23;100.00
35806;BME280;21925;44.608;11.580;2023-05-09T04:06:01;101840.13;;;19.28;100.00
35806;BME280;21925;44.608;11.580;2023-05-09T04:08:34;101847.03;;;19.12;100.00
35806;BME280;21925;44.608;11.580;2023-05-09T04:11:02;101860.16;;;19.11;100.00
35806;BME280;21925;44.608;11.580;2023-05-09T04:13:28;101854.50;;;18.78;100.00
35806;BME280;21925;44.608;11.580;2023-05-09T04:15:56;101859.09;;;18.67;100.00
35806;BME280;21925;44.608;11.580;2023-05-09T04:18:23;101857.28;;;18.52;100.00
35806;BME280;21925;44.608;11.580;2023-05-09T04:20:49;101850.38;;;18.65;100.00
35806;BME280;21925;44.608;11.580;2023-05-09T04:23:16;101853.50;;;18.64;100.00
35806;BME280;21925;44.608;11.580;2023-05-09T04:25:42;101841.69;;;18.44;100.00
35806;BME280;21925;44.608;11.580;2023-05-09T04:28:08;101854.13;;;18.54;100.00
35806;BME280;21925;44.608;11.580;2023-05-09T04:30:35;101852.91;;;18.51;100.00
35806;BME280;21925;44.608;11.580;2023-05-09T04:33:02;101853.19;;;18.43;100.00
35806;BME280;21925;44.608;11.580;2023-05-09T04:35:28;101861.41;;;18.62;100.00
35806;BME280;21925;44.608;11.580;2023-05-09T04:37:54;101854.22;;;18.87;100.00
35806;BME280;21925;44.608;11.580;2023-05-09T04:40:21;101845.44;;;18.81;100.00
35806;BME280;21925;44.608;11.580;2023-05-09T04:42:55;101858.56;;;18.84;100.00
35806;BME280;21925;44.608;11.580;2023-05-09T04:45:25;101848.41;;;18.95;100.00
35806;BME280;21925;44.608;11.580;2023-05-09T04:47:52;101859.34;;;18.81;100.00
35806;BME280;21925;44.608;11.580;2023-05-09T04:50:18;101860.13;;;18.56;100.00
35806;BME280;21925;44.608;11.580;2023-05-09T04:52:44;101863.50;;;18.68;100.00
35806;BME280;21925;44.608;11.580;2023-05-09T04:55:11;101868.47;;;18.56;100.00
35806;BME280;21925;44.608;11.580;2023-05-09T04:57:42;101858.34;;;18.44;100.00
35806;BME280;21925;44.608;11.580;2023-05-09T05:00:09;101861.47;;;18.65;100.00
35806;BME280;21925;44.608;11.580;2023-05-09T05:02:37;101874.31;;;18.73;100.00
35806;BME280;21925;44.608;11.580;2023-05-09T05:05:04;101880.66;;;18.74;100.00
35806;BME280;21925;44.608;11.580;2023-05-09T05:07:36;101873.22;;;18.55;100.00
35806;BME280;21925;44.608;11.580;2023-05-09T05:10:02;101873.28;;;18.59;100.00
35806;BME280;21925;44.608;11.580;2023-05-09T05:12:29;101866.06;;;18.54;100.00
35806;BME280;21925;44.608;11.580;2023-05-09T05:14:55;101888.81;;;18.63;100.00
35806;BME280;21925;44.608;11.580;2023-05-09T05:17:21;101870.00;;;18.53;100.00
35806;BME280;21925;44.608;11.580;2023-05-09T05:19:49;101887.91;;;18.82;100.00
35806;BME280;21925;44.608;11.580;2023-05-09T05:22:15;101871.78;;;18.65;100.00
35806;BME280;21925;44.608;11.580;2023-05-09T05:24:44;101876.66;;;18.71;100.00
35806;BME280;21925;44.608;11.580;2023-05-09T05:27:11;101886.25;;;18.77;100.00
35806;BME280;21925;44.608;11.580;2023-05-09T05:29:37;101891.41;;;19.05;100.00
35806;BME280;21925;44.608;11.580;2023-05-09T05:32:02;101890.97;;;19.28;100.00
35806;BME280;21925;44.608;11.580;2023-05-09T05:34:29;101871.84;;;19.23;100.00
35806;BME280;21925;44.608;11.580;2023-05-09T05:36:55;101888.06;;;19.51;100.00
35806;BME280;21925;44.608;11.580;2023-05-09T05:39:21;101880.75;;;19.36;100.00
35806;BME280;21925;44.608;11.580;2023-05-09T05:41:48;101893.78;;;19.32;100.00
35806;BME280;21925;44.608;11.580;2023-05-09T05:44:14;101891.56;;;19.15;100.00
35806;BME280;21925;44.608;11.580;2023-05-09T05:46:40;101890.06;;;19.18;100.00
35806;BME280;21925;44.608;11.580;2023-05-09T05:49:07;101898.84;;;19.23;100.00
35806;BME280;21925;44.608;11.580;2023-05-09T05:51:33;101874.72;;;19.05;100.00
35806;BME280;21925;44.608;11.580;2023-05-09T05:54:00;101895.66;;;19.21;100.00
35806;BME280;21925;44.608;11.580;2023-05-09T05:56:26;101901.66;;;18.97;100.00
35806;BME280;21925;44.608;11.580;2023-05-09T05:58:52;101889.56;;;19.12;100.00
35806;BME280;21925;44.608;11.580;2023-05-09T06:01:21;101882.63;;;19.61;100.00
35806;BME280;21925;44.608;11.580;2023-05-09T06:03:47;101882.84;;;19.79;100.00
35806;BME280;21925;44.608;11.580;2023-05-09T06:06:20;101881.84;;;19.61;100.00
35806;BME280;21925;44.608;11.580;2023-05-09T06:08:47;101871.81;;;19.89;100.00
35806;BME280;21925;44.608;11.580;2023-05-09T06:11:17;101897.50;;;20.12;100.00
35806;BME280;21925;44.608;11.580;2023-05-09T06:13:43;101876.66;;;19.96;100.00
35806;BME280;21925;44.608;11.580;2023-05-09T06:16:10;101892.66;;;20.05;100.00
35806;BME280;21925;44.608;11.580;2023-05-09T06:18:36;101889.47;;;20.03;100.00
35806;BME280;21925;44.608;11.580;2023-05-09T06:21:06;101893.66;;;20.23;100.00
35806;BME280;21925;44.608;11.580;2023-05-09T06:23:33;101857.34;;;19.73;100.00
35806;BME280;21925;44.608;11.580;2023-05-09T06:26:02;101878.66;;;19.95;100.00
35806;BME280;21925;44.608;11.580;2023-05-09T06:28:28;101865.63;;;20.03;100.00
35806;BME280;21925;44.608;11.580;2023-05-09T06:30:55;101888.53;;;20.29;100.00
35806;BME280;21925;44.608;11.580;2023-05-09T06:33:21;101885.06;;;20.42;100.00
35806;BME280;21925;44.608;11.580;2023-05-09T06:35:47;101894.63;;;20.45;100.00
35806;BME280;21925;44.608;11.580;2023-05-09T06:38:13;101888.97;;;20.34;100.00
35806;BME280;21925;44.608;11.580;2023-05-09T06:40:39;101893.38;;;20.35;100.00
35806;BME280;21925;44.608;11.580;2023-05-09T06:43:08;101880.97;;;20.33;100.00
35806;BME280;21925;44.608;11.580;2023-05-09T06:45:34;101885.63;;;20.65;100.00
35806;BME280;21925;44.608;11.580;2023-05-09T06:47:59;101892.56;;;20.88;100.00
35806;BME280;21925;44.608;11.580;2023-05-09T06:50:25;101887.69;;;20.75;100.00
35806;BME280;21925;44.608;11.580;2023-05-09T06:52:51;101858.38;;;20.41;100.00
35806;BME280;21925;44.608;11.580;2023-05-09T06:55:17;101874.66;;;20.36;100.00
35806;BME280;21925;44.608;11.580;2023-05-09T06:57:43;101888.44;;;20.69;100.00
35806;BME280;21925;44.608;11.580;2023-05-09T07:00:10;101890.06;;;20.73;100.00
35806;BME280;21925;44.608;11.580;2023-05-09T07:02:36;101878.22;;;20.83;100.00
35806;BME280;21925;44.608;11.580;2023-05-09T07:05:07;101889.53;;;21.11;100.00
35806;BME280;21925;44.608;11.580;2023-05-09T07:07:34;101891.28;;;21.40;98.04
35806;BME280;21925;44.608;11.580;2023-05-09T07:10:00;101891.06;;;20.98;98.77
35806;BME280;21925;44.608;11.580;2023-05-09T07:12:32;101883.47;;;20.95;100.00
35806;BME280;21925;44.608;11.580;2023-05-09T07:14:58;101868.88;;;21.26;100.00
35806;BME280;21925;44.608;11.580;2023-05-09T07:17:24;101878.41;;;21.21;97.86
35806;BME280;21925;44.608;11.580;2023-05-09T07:19:50;101889.66;;;21.32;99.27
35806;BME280;21925;44.608;11.580;2023-05-09T07:22:16;101876.22;;;21.58;98.14
35806;BME280;21925;44.608;11.580;2023-05-09T07:24:42;101887.50;;;22.17;95.22
35806;BME280;21925;44.608;11.580;2023-05-09T07:27:09;101859.16;;;22.22;91.82
35806;BME280;21925;44.608;11.580;2023-05-09T07:29:35;101875.56;;;22.48;91.33
35806;BME280;21925;44.608;11.580;2023-05-09T07:32:01;101881.13;;;22.51;90.59
35806;BME280;21925;44.608;11.580;2023-05-09T07:34:27;101871.53;;;22.14;92.38
35806;BME280;21925;44.608;11.580;2023-05-09T07:36:53;101880.75;;;22.32;93.24
35806;BME280;21925;44.608;11.580;2023-05-09T07:39:19;101863.97;;;22.18;94.20
35806;BME280;21925;44.608;11.580;2023-05-09T07:41:45;101881.91;;;22.21;94.18
35806;BME280;21925;44.608;11.580;2023-05-09T07:44:11;101868.78;;;22.32;92.07
35806;BME280;21925;44.608;11.580;2023-05-09T07:46:37;101861.19;;;22.39;91.80
35806;BME280;21925;44.608;11.580;2023-05-09T07:49:05;101875.06;;;23.02;89.50
35806;BME280;21925;44.608;11.580;2023-05-09T07:51:31;101869.78;;;23.32;88.68
35806;BME280;21925;44.608;11.580;2023-05-09T07:53:57;101868.16;;;23.37;87.07
35806;BME280;21925;44.608;11.580;2023-05-09T07:56:23;101880.41;;;23.68;86.81
35806;BME280;21925;44.608;11.580;2023-05-09T07:58:49;101876.34;;;23.86;84.50
35806;BME280;21925;44.608;11.580;2023-05-09T08:01:15;101862.31;;;23.04;86.09
35806;BME280;21925;44.608;11.580;2023-05-09T08:03:41;101876.19;;;23.32;87.36
35806;BME280;21925;44.608;11.580;2023-05-09T08:06:07;101868.97;;;23.31;87.77
35806;BME280;21925;44.608;11.580;2023-05-09T08:08:33;101860.03;;;23.60;87.18
35806;BME280;21925;44.608;11.580;2023-05-09T08:10:59;101847.09;;;23.91;88.35
35806;BME280;21925;44.608;11.580;2023-05-09T08:13:25;101848.53;;;24.09;84.03
35806;BME280;21925;44.608;11.580;2023-05-09T08:15:51;101847.47;;;23.96;83.53
35806;BME280;21925;44.608;11.580;2023-05-09T08:18:17;101855.56;;;23.80;84.81
35806;BME280;21925;44.608;11.580;2023-05-09T08:20:43;101844.38;;;23.80;84.69
35806;BME280;21925;44.608;11.580;2023-05-09T08:23:09;101840.06;;;23.58;83.42
35806;BME280;21925;44.608;11.580;2023-05-09T08:25:35;101795.41;;;23.34;83.73
35806;BME280;21925;44.608;11.580;2023-05-09T08:28:01;101841.38;;;24.05;83.67
35806;BME280;21925;44.608;11.580;2023-05-09T08:30:27;101835.94;;;23.84;83.16
35806;BME280;21925;44.608;11.580;2023-05-09T08:32:54;101847.09;;;23.91;84.54
35806;BME280;21925;44.608;11.580;2023-05-09T08:35:21;101844.47;;;24.17;83.71
35806;BME280;21925;44.608;11.580;2023-05-09T08:37:47;101839.69;;;24.17;81.74
35806;BME280;21925;44.608;11.580;2023-05-09T08:40:13;101843.88;;;24.43;81.41
35806;BME280;21925;44.608;11.580;2023-05-09T08:42:39;101834.75;;;24.32;81.25
35806;BME280;21925;44.608;11.580;2023-05-09T08:45:10;101834.13;;;24.14;80.43
35806;BME280;21925;44.608;11.580;2023-05-09T08:47:40;101836.25;;;24.47;79.69
35806;BME280;21925;44.608;11.580;2023-05-09T08:50:07;101840.84;;;24.23;82.49
35806;BME280;21925;44.608;11.580;2023-05-09T08:52:34;101849.38;;;24.53;82.47
35806;BME280;21925;44.608;11.580;2023-05-09T08:55:01;101845.88;;;24.46;81.34
35806;BME280;21925;44.608;11.580;2023-05-09T08:57:33;101849.28;;;24.64;79.07
35806;BME280;21925;44.608;11.580;2023-05-09T09:00:03;101822.69;;;24.35;79.21
35806;BME280;21925;44.608;11.580;2023-05-09T09:02:39;101822.16;;;24.91;80.14
35806;BME280;21925;44.608;11.580;2023-05-09T09:05:06;101790.84;;;24.96;80.02
35806;BME280;21925;44.608;11.580;2023-05-09T09:07:33;101827.97;;;24.73;78.00
35806;BME280;21925;44.608;11.580;2023-05-09T09:10:02;101833.81;;;24.89;77.44
35806;BME280;21925;44.608;11.580;2023-05-09T09:12:30;101825.09;;;25.13;78.74
35806;BME280;21925;44.608;11.580;2023-05-09T09:15:02;101831.63;;;25.03;76.32
35806;BME280;21925;44.608;11.580;2023-05-09T09:17:32;101846.81;;;25.09;79.12
35806;BME280;21925;44.608;11.580;2023-05-09T09:20:02;101826.28;;;25.46;78.89
35806;BME280;21925;44.608;11.580;2023-05-09T09:22:33;101819.97;;;25.65;76.92
35806;BME280;21925;44.608;11.580;2023-05-09T09:25:01;101820.94;;;25.84;75.08
35806;BME280;21925;44.608;11.580;2023-05-09T09:27:28;101819.78;;;25.82;72.89
35806;BME280;21925;44.608;11.580;2023-05-09T09:30:05;101813.06;;;25.99;72.33
35806;BME280;21925;44.608;11.580;2023-05-09T09:32:32;101809.59;;;26.41;75.18
35806;BME280;21925;44.608;11.580;2023-05-09T09:35:07;101796.34;;;26.38;74.81
35806;BME280;21925;44.608;11.580;2023-05-09T09:37:38;101816.59;;;26.52;71.15
35806;BME280;21925;44.608;11.580;2023-05-09T09:40:09;101810.38;;;27.22;70.92
35806;BME280;21925;44.608;11.580;2023-05-09T09:42:43;101792.41;;;27.51;69.72
35806;BME280;21925;44.608;11.580;2023-05-09T09:45:14;101808.06;;;27.17;68.56
35806;BME280;21925;44.608;11.580;2023-05-09T09:47:48;101810.19;;;26.90;67.79
35806;BME280;21925;44.608;11.580;2023-05-09T09:50:18;101777.78;;;27.41;71.65
35806;BME280;21925;44.608;11.580;2023-05-09T09:52:49;101805.06;;;27.79;70.01
35806;BME280;21925;44.608;11.580;2023-05-09T09:55:20;101792.78;;;27.53;68.17
35806;BME280;21925;44.608;11.580;2023-05-09T09:57:47;101787.56;;;27.36;69.36
35806;BME280;21925;44.608;11.580;2023-05-09T10:00:15;101802.53;;;27.84;67.73
35806;BME280;21925;44.608;11.580;2023-05-09T10:02:46;101812.50;;;28.36;68.84
35806;BME280;21925;44.608;11.580;2023-05-09T10:05:21;101792.91;;;28.45;67.75
35806;BME280;21925;44.608;11.580;2023-05-09T10:10:19;101802.13;;;28.02;65.33
35806;BME280;21925;44.608;11.580;2023-05-09T10:12:46;101792.59;;;28.27;66.71
35806;BME280;21925;44.608;11.580;2023-05-09T10:15:16;101793.09;;;29.11;68.63
35806;BME280;21925;44.608;11.580;2023-05-09T10:17:48;101792.91;;;29.30;63.06
35806;BME280;21925;44.608;11.580;2023-05-09T10:20:16;101777.03;;;29.61;62.62
35806;BME280;21925;44.608;11.580;2023-05-09T10:22:42;101785.63;;;30.07;62.20
35806;BME280;21925;44.608;11.580;2023-05-09T10:25:18;101795.41;;;30.95;62.64
35806;BME280;21925;44.608;11.580;2023-05-09T10:27:45;101788.63;;;30.72;59.31
35806;BME280;21925;44.608;11.580;2023-05-09T10:30:16;101794.88;;;30.67;62.66
35806;BME280;21925;44.608;11.580;2023-05-09T10:33:02;101798.03;;;30.22;62.60
35806;BME280;21925;44.608;11.580;2023-05-09T10:35:32;101795.59;;;30.46;63.46
35806;BME280;21925;44.608;11.580;2023-05-09T10:38:01;101791.75;;;29.94;61.35
35806;BME280;21925;44.608;11.580;2023-05-09T10:40:27;101778.94;;;29.89;62.01
35806;BME280;21925;44.608;11.580;2023-05-09T10:42:55;101794.09;;;30.07;60.45
35806;BME280;21925;44.608;11.580;2023-05-09T10:45:21;101789.38;;;29.80;60.61
35806;BME280;21925;44.608;11.580;2023-05-09T10:47:49;101768.28;;;29.31;60.03
35806;BME280;21925;44.608;11.580;2023-05-09T10:50:17;101777.75;;;29.24;59.07
35806;BME280;21925;44.608;11.580;2023-05-09T10:55:55;101775.22;;;29.67;61.56
35806;BME280;21925;44.608;11.580;2023-05-09T10:58:27;101777.47;;;29.60;60.13
35806;BME280;21925;44.608;11.580;2023-05-09T11:00:59;101763.47;;;29.56;58.65
35806;BME280;21925;44.608;11.580;2023-05-09T11:03:51;101777.13;;;29.70;60.36
35806;BME280;21925;44.608;11.580;2023-05-09T11:09:32;101769.00;;;30.43;59.33
35806;BME280;21925;44.608;11.580;2023-05-09T11:17:06;101758.09;;;30.20;60.14
35806;BME280;21925;44.608;11.580;2023-05-09T11:19:56;101759.56;;;30.80;59.06
35806;BME280;21925;44.608;11.580;2023-05-09T11:22:44;101759.00;;;30.85;57.01
35806;BME280;21925;44.608;11.580;2023-05-09T11:25:16;101748.22;;;30.59;56.96
35806;BME280;21925;44.608;11.580;2023-05-09T11:30:12;101740.44;;;30.16;57.62
35806;BME280;21925;44.608;11.580;2023-05-09T11:32:52;101747.66;;;30.30;57.61
35806;BME280;21925;44.608;11.580;2023-05-09T11:35:21;101739.13;;;29.96;58.53
35806;BME280;21925;44.608;11.580;2023-05-09T11:40:21;101745.81;;;30.36;61.79
35806;BME280;21925;44.608;11.580;2023-05-09T11:42:49;101728.44;;;31.01;58.18
35806;BME280;21925;44.608;11.580;2023-05-09T11:45:18;101726.19;;;31.27;55.61
35806;BME280;21925;44.608;11.580;2023-05-09T11:47:46;101724.50;;;31.29;55.36
35806;BME280;21925;44.608;11.580;2023-05-09T11:50:15;101723.97;;;32.00;56.98
35806;BME280;21925;44.608;11.580;2023-05-09T11:52:42;101714.09;;;32.14;54.64
35806;BME280;21925;44.608;11.580;2023-05-09T11:55:08;101715.19;;;31.59;54.23
35806;BME280;21925;44.608;11.580;2023-05-09T11:57:39;101717.66;;;31.96;56.41
35806;BME280;21925;44.608;11.580;2023-05-09T12:00:06;101715.69;;;32.42;58.33
35806;BME280;21925;44.608;11.580;2023-05-09T12:02:34;101715.03;;;32.55;55.00
35806;BME280;21925;44.608;11.580;2023-05-09T12:05:12;101703.34;;;32.44;53.82
35806;BME280;21925;44.608;11.580;2023-05-09T12:07:40;101692.00;;;32.53;53.26
35806;BME280;21925;44.608;11.580;2023-05-09T12:10:08;101697.22;;;32.46;52.79
35806;BME280;21925;44.608;11.580;2023-05-09T12:12:36;101699.91;;;32.49;55.17
35806;BME280;21925;44.608;11.580;2023-05-09T12:15:07;101661.25;;;32.61;54.17
35806;BME280;21925;44.608;11.580;2023-05-09T12:17:34;101692.75;;;32.81;52.70
35806;BME280;21925;44.608;11.580;2023-05-09T12:20:01;101662.94;;;32.76;53.12
35806;BME280;21925;44.608;11.580;2023-05-09T12:22:31;101675.28;;;32.55;52.25
35806;BME280;21925;44.608;11.580;2023-05-09T12:25:04;101664.75;;;32.38;51.47
35806;BME280;21925;44.608;11.580;2023-05-09T12:27:33;101649.91;;;32.25;53.25
35806;BME280;21925;44.608;11.580;2023-05-09T12:30:00;101665.66;;;32.17;53.67
35806;BME280;21925;44.608;11.580;2023-05-09T12:32:28;101665.19;;;32.45;52.01
35806;BME280;21925;44.608;11.580;2023-05-09T12:34:58;101636.63;;;32.40;54.23
35806;BME280;21925;44.608;11.580;2023-05-09T12:37:25;101656.84;;;32.24;51.26
35806;BME280;21925;44.608;11.580;2023-05-09T12:40:05;101656.50;;;32.76;52.80
35806;BME280;21925;44.608;11.580;2023-05-09T12:42:32;101652.13;;;32.12;53.89
35806;BME280;21925;44.608;11.580;2023-05-09T12:45:00;101649.91;;;32.25;54.85
35806;BME280;21925;44.608;11.580;2023-05-09T12:47:28;101642.28;;;31.86;54.23
35806;BME280;21925;44.608;11.580;2023-05-09T12:50:01;101635.34;;;31.69;53.65
35806;BME280;21925;44.608;11.580;2023-05-09T12:52:38;101632.78;;;31.54;53.35
35806;BME280;21925;44.608;11.580;2023-05-09T12:55:10;101630.31;;;31.25;54.30
35806;BME280;21925;44.608;11.580;2023-05-09T12:57:40;101624.66;;;31.73;56.31
35806;BME280;21925;44.608;11.580;2023-05-09T13:00:08;101619.31;;;32.38;54.92
35806;BME280;21925;44.608;11.580;2023-05-09T13:02:39;101592.94;;;32.64;52.34
35806;BME280;21925;44.608;11.580;2023-05-09T13:05:17;101598.66;;;32.88;53.00
35806;BME280;21925;44.608;11.580;2023-05-09T13:07:45;101580.63;;;32.49;53.01
35806;BME280;21925;44.608;11.580;2023-05-09T13:10:19;101592.72;;;32.77;52.95
35806;BME280;21925;44.608;11.580;2023-05-09T13:12:48;101592.06;;;32.82;51.47
35806;BME280;21925;44.608;11.580;2023-05-09T13:15:19;101588.72;;;32.15;52.71